sensor_id;sensor_type;location;lat;lon;timestamp;temperature;humidity
36654;DHT22;22650;49.350;20.898;2024-01-15T00:01:04;-0.50;99.90
36654;DHT22;22650;49.350;20.898;2024-01-15T00:03:38;-0.50;99.90
36654;DHT22;22650;49.350;20.898;2024-01-15T00:06:11;-0.40;99.90
36654;DHT22;22650;49.350;20.898;2024-01-15T00:08:46;-0.40;99.90
36654;DHT22;22650;49.350;20.898;2024-01-15T00:11:20;-0.40;99.90
36654;DHT22;22650;49.350;20.898;2024-01-15T00:13:54;-0.50;99.90
36654;DHT22;22650;49.350;20.898;2024-01-15T00:16:27;-0.50;99.90
36654;DHT22;22650;49.350;20.898;2024-01-15T00:19:01;-0.50;99.90
36654;DHT22;22650;49.350;20.898;2024-01-15T00:21:34;-0.50;99.90
36654;DHT22;22650;49.350;20.898;2024-01-15T00:24:09;-0.50;99.90
36654;DHT22;22650;49.350;20.898;2024-01-15T00:26:43;-0.60;99.90
36654;DHT22;22650;49.350;20.898;2024-01-15T00:29:17;-0.60;99.90
36654;DHT22;22650;49.350;20.898;2024-01-15T00:31:50;-0.60;99.90
36654;DHT22;22650;49.350;20.898;2024-01-15T00:34:24;-0.60;99.90
36654;DHT22;22650;49.350;20.898;2024-01-15T00:36:58;-0.60;99.90
36654;DHT22;22650;49.350;20.898;2024-01-15T00:39:32;-0.60;99.90
36654;DHT22;22650;49.350;20.898;2024-01-15T00:42:06;-0.70;99.90
36654;DHT22;22650;49.350;20.898;2024-01-15T00:44:40;-0.80;99.90
36654;DHT22;22650;49.350;20.898;2024-01-15T00:47:14;-0.80;99.90
36654;DHT22;22650;49.350;20.898;2024-01-15T00:49:47;-0.80;99.90
36654;DHT22;22650;49.350;20.898;2024-01-15T00:52:21;-0.80;99.90
36654;DHT22;22650;49.350;20.898;2024-01-15T00:54:56;-0.80;99.90
36654;DHT22;22650;49.350;20.898;2024-01-15T00:57:29;-0.80;99.90
36654;DHT22;22650;49.350;20.898;2024-01-15T01:00:04;-0.80;99.90
36654;DHT22;22650;49.350;20.898;2024-01-15T01:02:38;-0.80;99.90
36654;DHT22;22650;49.350;20.898;2024-01-15T01:05:12;-0.70;99.90
36654;DHT22;22650;49.350;20.898;2024-01-15T01:07:46;-0.70;99.90
36654;DHT22;22650;49.350;20.898;2024-01-15T01:10:21;-0.70;99.90
36654;DHT22;22650;49.350;20.898;2024-01-15T01:12:54;-0.70;99.90
36654;DHT22;22650;49.350;20.898;2024-01-15T01:15:28;-0.80;99.90
36654;DHT22;22650;49.350;20.898;2024-01-15T01:18:02;-0.80;99.90
36654;DHT22;22650;49.350;20.898;2024-01-15T01:20:35;-0.90;99.90
36654;DHT22;22650;49.350;20.898;2024-01-15T01:23:09;-0.90;99.90
36654;DHT22;22650;49.350;20.898;2024-01-15T01:25:44;-0.90;99.90
36654;DHT22;22650;49.350;20.898;2024-01-15T01:28:18;-0.90;99.90
36654;DHT22;22650;49.350;20.898;2024-01-15T01:30:51;-0.90;99.90
36654;DHT22;22650;49.350;20.898;2024-01-15T01:33:25;-0.90;99.90
36654;DHT22;22650;49.350;20.898;2024-01-15T01:35:59;-0.90;99.90
36654;DHT22;22650;49.350;20.898;2024-01-15T01:38:32;-0.90;99.90
36654;DHT22;22650;49.350;20.898;2024-01-15T01:41:07;-0.90;99.90
36654;DHT22;22650;49.350;20.898;2024-01-15T01:43:41;-0.90;99.90
36654;DHT22;22650;49.350;20.898;2024-01-15T01:46:15;-1.00;99.90
36654;DHT22;22650;49.350;20.898;2024-01-15T01:48:49;-1.20;99.90
36654;DHT22;22650;49.350;20.898;2024-01-15T01:51:24;-1.20;99.90
36654;DHT22;22650;49.350;20.898;2024-01-15T01:53:57;-1.30;99.90
36654;DHT22;22650;49.350;20.898;2024-01-15T01:56:33;-1.30;99.90
36654;DHT22;22650;49.350;20.898;2024-01-15T01:59:08;-1.50;99.90
36654;DHT22;22650;49.350;20.898;2024-01-15T02:01:44;-1.50;99.90
36654;DHT22;22650;49.350;20.898;2024-01-15T02:04:18;-1.60;99.90
36654;DHT22;22650;49.350;20.898;2024-01-15T02:06:53;-1.60;99.90
36654;DHT22;22650;49.350;20.898;2024-01-15T02:09:27;-1.70;99.90
36654;DHT22;22650;49.350;20.898;2024-01-15T02:12:02;-1.70;99.90
36654;DHT22;22650;49.350;20.898;2024-01-15T02:14:36;-1.70;99.90
36654;DHT22;22650;49.350;20.898;2024-01-15T02:17:09;-1.70;99.90
36654;DHT22;22650;49.350;20.898;2024-01-15T02:19:43;-1.70;99.90
36654;DHT22;22650;49.350;20.898;2024-01-15T02:22:17;-1.90;99.90
36654;DHT22;22650;49.350;20.898;2024-01-15T02:24:52;-1.90;99.90
36654;DHT22;22650;49.350;20.898;2024-01-15T02:27:25;-2.00;99.90
36654;DHT22;22650;49.350;20.898;2024-01-15T02:29:59;-2.00;99.90
36654;DHT22;22650;49.350;20.898;2024-01-15T02:32:33;-2.00;99.90
36654;DHT22;22650;49.350;20.898;2024-01-15T02:35:07;-2.10;99.90
36654;DHT22;22650;49.350;20.898;2024-01-15T02:37:40;-2.10;99.90
36654;DHT22;22650;49.350;20.898;2024-01-15T02:40:15;-2.10;99.90
36654;DHT22;22650;49.350;20.898;2024-01-15T02:42:49;-2.10;99.90
36654;DHT22;22650;49.350;20.898;2024-01-15T02:45:23;-2.10;99.90
36654;DHT22;22650;49.350;20.898;2024-01-15T02:47:57;-2.10;99.90
36654;DHT22;22650;49.350;20.898;2024-01-15T02:50:30;-2.10;99.90
36654;DHT22;22650;49.350;20.898;2024-01-15T02:53:03;-2.10;99.90
36654;DHT22;22650;49.350;20.898;2024-01-15T02:55:38;-2.00;99.90
36654;DHT22;22650;49.350;20.898;2024-01-15T02:58:12;-2.10;99.90
36654;DHT22;22650;49.350;20.898;2024-01-15T03:00:46;-2.10;99.90
36654;DHT22;22650;49.350;20.898;2024-01-15T03:03:19;-2.00;99.90
36654;DHT22;22650;49.350;20.898;2024-01-15T03:05:53;-2.10;99.90
36654;DHT22;22650;49.350;20.898;2024-01-15T03:08:27;-2.10;99.90
36654;DHT22;22650;49.350;20.898;2024-01-15T03:11:03;-2.10;99.90
36654;DHT22;22650;49.350;20.898;2024-01-15T03:13:36;-2.10;99.90
36654;DHT22;22650;49.350;20.898;2024-01-15T03:16:10;-2.10;99.90
36654;DHT22;22650;49.350;20.898;2024-01-15T03:18:44;-2.10;99.90
36654;DHT22;22650;49.350;20.898;2024-01-15T03:21:17;-2.00;99.90
36654;DHT22;22650;49.350;20.898;2024-01-15T03:23:51;-2.00;99.90
36654;DHT22;22650;49.350;20.898;2024-01-15T03:26:26;-2.00;99.90
36654;DHT22;22650;49.350;20.898;2024-01-15T03:28:59;-2.00;99.90
36654;DHT22;22650;49.350;20.898;2024-01-15T03:31:33;-2.00;99.90
36654;DHT22;22650;49.350;20.898;2024-01-15T03:34:07;-2.00;99.90
36654;DHT22;22650;49.350;20.898;2024-01-15T03:36:40;-2.00;99.90
36654;DHT22;22650;49.350;20.898;2024-01-15T03:39:14;-2.00;99.90
36654;DHT22;22650;49.350;20.898;2024-01-15T03:41:49;-2.00;99.90
36654;DHT22;22650;49.350;20.898;2024-01-15T03:44:23;-2.00;99.90
36654;DHT22;22650;49.350;20.898;2024-01-15T03:46:57;-1.90;99.90
36654;DHT22;22650;49.350;20.898;2024-01-15T03:49:31;-1.90;99.90
36654;DHT22;22650;49.350;20.898;2024-01-15T03:52:05;-2.00;99.90
36654;DHT22;22650;49.350;20.898;2024-01-15T03:54:38;-2.00;99.90
36654;DHT22;22650;49.350;20.898;2024-01-15T03:57:13;-2.00;99.90
36654;DHT22;22650;49.350;20.898;2024-01-15T03:59:47;-2.00;99.90
36654;DHT22;22650;49.350;20.898;2024-01-15T04:02:20;-1.90;99.90
36654;DHT22;22650;49.350;20.898;2024-01-15T04:04:54;-1.90;99.90
36654;DHT22;22650;49.350;20.898;2024-01-15T04:07:28;-1.90;99.90
36654;DHT22;22650;49.350;20.898;2024-01-15T04:10:02;-1.90;99.90
36654;DHT22;22650;49.350;20.898;2024-01-15T04:12:36;-1.90;99.90
36654;DHT22;22650;49.350;20.898;2024-01-15T04:15:10;-1.90;99.90
36654;DHT22;22650;49.350;20.898;2024-01-15T04:17:44;-1.90;99.90
36654;DHT22;22650;49.350;20.898;2024-01-15T04:20:18;-1.90;99.90
36654;DHT22;22650;49.350;20.898;2024-01-15T04:22:55;-2.00;99.90
36654;DHT22;22650;49.350;20.898;2024-01-15T04:25:29;-2.10;99.90
36654;DHT22;22650;49.350;20.898;2024-01-15T04:28:04;-2.00;99.90
36654;DHT22;22650;49.350;20.898;2024-01-15T04:30:38;-1.90;99.90
36654;DHT22;22650;49.350;20.898;2024-01-15T04:33:11;-1.70;99.90
36654;DHT22;22650;49.350;20.898;2024-01-15T04:35:45;-1.60;99.90
36654;DHT22;22650;49.350;20.898;2024-01-15T04:38:19;-1.50;99.90
36654;DHT22;22650;49.350;20.898;2024-01-15T04:40:52;-1.40;99.90
36654;DHT22;22650;49.350;20.898;2024-01-15T04:43:31;-1.40;99.90
36654;DHT22;22650;49.350;20.898;2024-01-15T04:46:05;-1.30;99.90
36654;DHT22;22650;49.350;20.898;2024-01-15T04:48:39;-1.30;99.90
36654;DHT22;22650;49.350;20.898;2024-01-15T04:51:12;-1.20;99.90
36654;DHT22;22650;49.350;20.898;2024-01-15T04:53:46;-1.30;99.90
36654;DHT22;22650;49.350;20.898;2024-01-15T04:56:20;-1.30;99.90
36654;DHT22;22650;49.350;20.898;2024-01-15T04:58:55;-1.30;99.90
36654;DHT22;22650;49.350;20.898;2024-01-15T05:01:31;-1.30;99.90
36654;DHT22;22650;49.350;20.898;2024-01-15T05:04:05;-1.30;99.90
36654;DHT22;22650;49.350;20.898;2024-01-15T05:06:39;-1.30;99.90
36654;DHT22;22650;49.350;20.898;2024-01-15T05:09:12;-1.30;99.90
36654;DHT22;22650;49.350;20.898;2024-01-15T05:11:46;-1.40;99.90
36654;DHT22;22650;49.350;20.898;2024-01-15T05:14:21;-1.50;99.90
36654;DHT22;22650;49.350;20.898;2024-01-15T05:16:55;-1.60;99.90
36654;DHT22;22650;49.350;20.898;2024-01-15T05:19:28;-1.70;99.90
36654;DHT22;22650;49.350;20.898;2024-01-15T05:22:02;-1.80;99.90
36654;DHT22;22650;49.350;20.898;2024-01-15T05:24:36;-1.80;99.90
36654;DHT22;22650;49.350;20.898;2024-01-15T05:27:10;-1.90;99.90
36654;DHT22;22650;49.350;20.898;2024-01-15T05:29:45;-1.90;99.90
36654;DHT22;22650;49.350;20.898;2024-01-15T05:32:18;-2.00;99.90
36654;DHT22;22650;49.350;20.898;2024-01-15T05:34:52;-2.00;99.90
36654;DHT22;22650;49.350;20.898;2024-01-15T05:37:25;-2.10;99.90
36654;DHT22;22650;49.350;20.898;2024-01-15T05:39:59;-2.20;99.90
36654;DHT22;22650;49.350;20.898;2024-01-15T05:42:33;-2.20;99.90
36654;DHT22;22650;49.350;20.898;2024-01-15T05:45:08;-2.30;99.90
36654;DHT22;22650;49.350;20.898;2024-01-15T05:47:42;-2.30;99.90
36654;DHT22;22650;49.350;20.898;2024-01-15T05:50:17;-2.40;99.90
36654;DHT22;22650;49.350;20.898;2024-01-15T05:52:51;-2.40;99.90
36654;DHT22;22650;49.350;20.898;2024-01-15T05:55:25;-2.40;99.90
36654;DHT22;22650;49.350;20.898;2024-01-15T05:57:58;-2.40;99.90
36654;DHT22;22650;49.350;20.898;2024-01-15T06:00:33;-2.40;99.90
36654;DHT22;22650;49.350;20.898;2024-01-15T06:03:08;-2.50;99.90
36654;DHT22;22650;49.350;20.898;2024-01-15T06:05:42;-2.50;99.90
36654;DHT22;22650;49.350;20.898;2024-01-15T06:08:16;-2.50;99.90
36654;DHT22;22650;49.350;20.898;2024-01-15T06:10:49;-2.60;99.90
36654;DHT22;22650;49.350;20.898;2024-01-15T06:13:23;-2.70;99.90
36654;DHT22;22650;49.350;20.898;2024-01-15T06:15:58;-2.70;99.90
36654;DHT22;22650;49.350;20.898;2024-01-15T06:18:31;-2.80;99.90
36654;DHT22;22650;49.350;20.898;2024-01-15T06:21:05;-2.80;99.90
36654;DHT22;22650;49.350;20.898;2024-01-15T06:23:39;-2.90;99.90
36654;DHT22;22650;49.350;20.898;2024-01-15T06:26:12;-2.90;99.90
36654;DHT22;22650;49.350;20.898;2024-01-15T06:28:46;-3.00;99.90
36654;DHT22;22650;49.350;20.898;2024-01-15T06:31:21;-3.10;99.90
36654;DHT22;22650;49.350;20.898;2024-01-15T06:33:55;-3.10;99.90
36654;DHT22;22650;49.350;20.898;2024-01-15T06:36:29;-3.20;99.90
36654;DHT22;22650;49.350;20.898;2024-01-15T06:39:03;-3.20;99.90
36654;DHT22;22650;49.350;20.898;2024-01-15T06:41:37;-3.20;99.90
36654;DHT22;22650;49.350;20.898;2024-01-15T06:44:15;-3.30;99.90
36654;DHT22;22650;49.350;20.898;2024-01-15T06:46:50;-3.30;99.90
36654;DHT22;22650;49.350;20.898;2024-01-15T06:49:24;-3.30;99.90
36654;DHT22;22650;49.350;20.898;2024-01-15T06:51:57;-3.40;99.90
36654;DHT22;22650;49.350;20.898;2024-01-15T06:54:31;-3.30;99.90
36654;DHT22;22650;49.350;20.898;2024-01-15T06:57:05;-3.40;99.90
36654;DHT22;22650;49.350;20.898;2024-01-15T06:59:39;-3.40;99.90
36654;DHT22;22650;49.350;20.898;2024-01-15T07:02:14;-3.30;99.90
36654;DHT22;22650;49.350;20.898;2024-01-15T07:04:48;-3.30;99.90
36654;DHT22;22650;49.350;20.898;2024-01-15T07:07:21;-3.30;99.90
36654;DHT22;22650;49.350;20.898;2024-01-15T07:09:55;-3.20;99.90
36654;DHT22;22650;49.350;20.898;2024-01-15T07:12:29;-3.30;99.90
36654;DHT22;22650;49.350;20.898;2024-01-15T07:15:03;-3.30;99.90
36654;DHT22;22650;49.350;20.898;2024-01-15T07:17:40;-3.30;99.90
36654;DHT22;22650;49.350;20.898;2024-01-15T07:20:15;-3.30;99.90
36654;DHT22;22650;49.350;20.898;2024-01-15T07:22:51;-3.20;99.90
36654;DHT22;22650;49.350;20.898;2024-01-15T07:25:25;-3.20;99.90
36654;DHT22;22650;49.350;20.898;2024-01-15T07:27:59;-3.10;99.90
36654;DHT22;22650;49.350;20.898;2024-01-15T07:30:33;-3.00;99.90
36654;DHT22;22650;49.350;20.898;2024-01-15T07:33:08;-2.90;99.90
36654;DHT22;22650;49.350;20.898;2024-01-15T07:35:42;-2.90;99.90
36654;DHT22;22650;49.350;20.898;2024-01-15T07:38:15;-2.90;99.90
36654;DHT22;22650;49.350;20.898;2024-01-15T07:40:49;-2.80;99.90
36654;DHT22;22650;49.350;20.898;2024-01-15T07:43:22;-2.60;99.90
36654;DHT22;22650;49.350;20.898;2024-01-15T07:45:56;-2.30;99.90
36654;DHT22;22650;49.350;20.898;2024-01-15T07:48:32;-2.20;99.90
36654;DHT22;22650;49.350;20.898;2024-01-15T07:51:06;-2.00;99.90
36654;DHT22;22650;49.350;20.898;2024-01-15T07:53:40;-1.90;99.90
36654;DHT22;22650;49.350;20.898;2024-01-15T07:56:14;-1.80;99.90
36654;DHT22;22650;49.350;20.898;2024-01-15T07:58:48;-1.60;99.90
36654;DHT22;22650;49.350;20.898;2024-01-15T08:01:21;-1.50;99.90
36654;DHT22;22650;49.350;20.898;2024-01-15T08:03:57;-1.40;99.90
36654;DHT22;22650;49.350;20.898;2024-01-15T08:06:30;-1.30;99.90
36654;DHT22;22650;49.350;20.898;2024-01-15T08:09:04;-1.20;99.90
36654;DHT22;22650;49.350;20.898;2024-01-15T08:11:39;-1.10;99.90
36654;DHT22;22650;49.350;20.898;2024-01-15T08:14:14;-1.10;99.90
36654;DHT22;22650;49.350;20.898;2024-01-15T08:16:47;-1.00;99.90
36654;DHT22;22650;49.350;20.898;2024-01-15T08:19:22;-1.00;99.90
36654;DHT22;22650;49.350;20.898;2024-01-15T08:21:56;-1.00;99.90
36654;DHT22;22650;49.350;20.898;2024-01-15T08:24:30;-1.00;99.90
36654;DHT22;22650;49.350;20.898;2024-01-15T08:27:04;-1.00;99.90
36654;DHT22;22650;49.350;20.898;2024-01-15T08:29:38;-1.00;99.90
36654;DHT22;22650;49.350;20.898;2024-01-15T08:32:11;-0.90;99.90
36654;DHT22;22650;49.350;20.898;2024-01-15T08:34:49;-0.80;99.90
36654;DHT22;22650;49.350;20.898;2024-01-15T08:37:24;-0.60;99.90
36654;DHT22;22650;49.350;20.898;2024-01-15T08:39:58;-0.40;99.90
36654;DHT22;22650;49.350;20.898;2024-01-15T08:42:32;-0.20;99.90
36654;DHT22;22650;49.350;20.898;2024-01-15T08:45:06;0.00;99.90
36654;DHT22;22650;49.350;20.898;2024-01-15T08:47:40;0.20;99.90
36654;DHT22;22650;49.350;20.898;2024-01-15T08:50:15;0.40;99.90
36654;DHT22;22650;49.350;20.898;2024-01-15T08:52:49;0.40;99.90
36654;DHT22;22650;49.350;20.898;2024-01-15T08:55:23;0.50;99.90
36654;DHT22;22650;49.350;20.898;2024-01-15T08:57:56;0.50;99.90
36654;DHT22;22650;49.350;20.898;2024-01-15T09:00:30;0.50;99.90
36654;DHT22;22650;49.350;20.898;2024-01-15T09:03:04;0.50;99.90
36654;DHT22;22650;49.350;20.898;2024-01-15T09:05:39;0.50;99.90
36654;DHT22;22650;49.350;20.898;2024-01-15T09:08:13;0.50;99.90
36654;DHT22;22650;49.350;20.898;2024-01-15T09:10:47;0.50;99.90
36654;DHT22;22650;49.350;20.898;2024-01-15T09:13:21;0.40;99.90
36654;DHT22;22650;49.350;20.898;2024-01-15T09:15:54;0.40;99.90
36654;DHT22;22650;49.350;20.898;2024-01-15T09:18:28;0.40;99.90
36654;DHT22;22650;49.350;20.898;2024-01-15T09:21:04;0.40;99.90
36654;DHT22;22650;49.350;20.898;2024-01-15T09:23:37;0.40;99.90
36654;DHT22;22650;49.350;20.898;2024-01-15T09:26:11;0.40;99.90
36654;DHT22;22650;49.350;20.898;2024-01-15T09:28:45;0.50;99.90
36654;DHT22;22650;49.350;20.898;2024-01-15T09:31:19;0.60;99.90
36654;DHT22;22650;49.350;20.898;2024-01-15T09:33:53;0.70;99.90
36654;DHT22;22650;49.350;20.898;2024-01-15T09:36:30;0.80;99.90
36654;DHT22;22650;49.350;20.898;2024-01-15T09:39:03;0.90;99.90
36654;DHT22;22650;49.350;20.898;2024-01-15T09:41:40;1.10;99.90
36654;DHT22;22650;49.350;20.898;2024-01-15T09:44:14;1.30;99.90
36654;DHT22;22650;49.350;20.898;2024-01-15T09:46:49;1.50;99.90
36654;DHT22;22650;49.350;20.898;2024-01-15T09:49:24;1.70;99.90
36654;DHT22;22650;49.350;20.898;2024-01-15T09:51:59;1.90;99.90
36654;DHT22;22650;49.350;20.898;2024-01-15T09:54:44;2.00;99.90
36654;DHT22;22650;49.350;20.898;2024-01-15T09:57:20;2.10;99.90
36654;DHT22;22650;49.350;20.898;2024-01-15T09:59:55;2.20;99.90
36654;DHT22;22650;49.350;20.898;2024-01-15T10:02:31;2.30;99.90
36654;DHT22;22650;49.350;20.898;2024-01-15T10:05:05;2.30;99.90
36654;DHT22;22650;49.350;20.898;2024-01-15T10:07:40;2.30;99.90
36654;DHT22;22650;49.350;20.898;2024-01-15T10:10:13;2.30;99.90
36654;DHT22;22650;49.350;20.898;2024-01-15T10:12:47;2.20;99.90
36654;DHT22;22650;49.350;20.898;2024-01-15T10:15:22;2.20;99.90
36654;DHT22;22650;49.350;20.898;2024-01-15T10:17:57;2.20;99.90
36654;DHT22;22650;49.350;20.898;2024-01-15T10:20:32;2.20;99.90
36654;DHT22;22650;49.350;20.898;2024-01-15T10:23:07;2.40;99.90
36654;DHT22;22650;49.350;20.898;2024-01-15T10:25:42;2.50;99.90
36654;DHT22;22650;49.350;20.898;2024-01-15T10:28:15;2.70;99.70
36654;DHT22;22650;49.350;20.898;2024-01-15T10:30:52;3.20;99.90
36654;DHT22;22650;49.350;20.898;2024-01-15T10:33:27;3.60;96.90
36654;DHT22;22650;49.350;20.898;2024-01-15T10:36:01;3.90;95.00
36654;DHT22;22650;49.350;20.898;2024-01-15T10:38:36;4.10;93.90
36654;DHT22;22650;49.350;20.898;2024-01-15T10:41:10;4.30;94.20
36654;DHT22;22650;49.350;20.898;2024-01-15T10:43:44;4.40;93.40
36654;DHT22;22650;49.350;20.898;2024-01-15T10:46:17;4.60;93.20
36654;DHT22;22650;49.350;20.898;2024-01-15T10:48:51;4.80;93.10
36654;DHT22;22650;49.350;20.898;2024-01-15T10:51:26;5.10;92.70
36654;DHT22;22650;49.350;20.898;2024-01-15T10:54:01;5.40;90.50
36654;DHT22;22650;49.350;20.898;2024-01-15T10:56:35;5.40;90.30
36654;DHT22;22650;49.350;20.898;2024-01-15T10:59:11;5.90;91.80
36654;DHT22;22650;49.350;20.898;2024-01-15T11:01:45;6.00;89.70
36654;DHT22;22650;49.350;20.898;2024-01-15T11:04:19;6.00;87.40
36654;DHT22;22650;49.350;20.898;2024-01-15T11:06:53;6.20;87.50
36654;DHT22;22650;49.350;20.898;2024-01-15T11:09:29;6.20;84.00
36654;DHT22;22650;49.350;20.898;2024-01-15T11:12:08;6.20;85.80
36654;DHT22;22650;49.350;20.898;2024-01-15T11:14:46;6.30;85.50
36654;DHT22;22650;49.350;20.898;2024-01-15T11:17:19;6.30;84.00
36654;DHT22;22650;49.350;20.898;2024-01-15T11:19:53;6.50;84.20
36654;DHT22;22650;49.350;20.898;2024-01-15T11:22:57;6.60;84.90
36654;DHT22;22650;49.350;20.898;2024-01-15T11:25:35;6.60;81.30
36654;DHT22;22650;49.350;20.898;2024-01-15T11:28:10;6.70;81.90
36654;DHT22;22650;49.350;20.898;2024-01-15T11:30:44;6.60;83.20
36654;DHT22;22650;49.350;20.898;2024-01-15T11:33:32;6.60;82.50
36654;DHT22;22650;49.350;20.898;2024-01-15T11:36:07;6.60;80.90
36654;DHT22;22650;49.350;20.898;2024-01-15T11:38:40;6.80;80.40
36654;DHT22;22650;49.350;20.898;2024-01-15T11:41:15;6.70;80.20
36654;DHT22;22650;49.350;20.898;2024-01-15T11:43:49;6.60;81.80
36654;DHT22;22650;49.350;20.898;2024-01-15T11:46:25;6.30;79.60
36654;DHT22;22650;49.350;20.898;2024-01-15T11:49:03;6.20;81.60
36654;DHT22;22650;49.350;20.898;2024-01-15T11:51:38;6.10;83.70
36654;DHT22;22650;49.350;20.898;2024-01-15T11:54:12;6.00;84.80
36654;DHT22;22650;49.350;20.898;2024-01-15T11:56:49;5.80;82.30
36654;DHT22;22650;49.350;20.898;2024-01-15T11:59:23;5.70;82.80
36654;DHT22;22650;49.350;20.898;2024-01-15T12:01:57;5.60;82.20
36654;DHT22;22650;49.350;20.898;2024-01-15T12:04:31;5.40;82.60
36654;DHT22;22650;49.350;20.898;2024-01-15T12:07:05;5.30;83.20
36654;DHT22;22650;49.350;20.898;2024-01-15T12:09:43;5.20;83.70
36654;DHT22;22650;49.350;20.898;2024-01-15T12:12:24;5.10;83.20
36654;DHT22;22650;49.350;20.898;2024-01-15T12:15:00;5.00;83.30
36654;DHT22;22650;49.350;20.898;2024-01-15T12:17:36;4.90;83.60
36654;DHT22;22650;49.350;20.898;2024-01-15T12:20:11;4.80;83.30
36654;DHT22;22650;49.350;20.898;2024-01-15T12:22:45;4.70;83.20
36654;DHT22;22650;49.350;20.898;2024-01-15T12:25:33;4.60;84.20
36654;DHT22;22650;49.350;20.898;2024-01-15T12:28:08;4.30;84.20
36654;DHT22;22650;49.350;20.898;2024-01-15T12:30:45;4.30;84.50
36654;DHT22;22650;49.350;20.898;2024-01-15T12:33:22;4.10;85.10
36654;DHT22;22650;49.350;20.898;2024-01-15T12:35:56;4.10;85.40
36654;DHT22;22650;49.350;20.898;2024-01-15T12:38:29;4.10;86.00
36654;DHT22;22650;49.350;20.898;2024-01-15T12:41:03;4.10;85.60
36654;DHT22;22650;49.350;20.898;2024-01-15T12:43:39;4.10;85.90
36654;DHT22;22650;49.350;20.898;2024-01-15T12:46:13;4.10;83.70
36654;DHT22;22650;49.350;20.898;2024-01-15T12:48:48;4.00;84.70
36654;DHT22;22650;49.350;20.898;2024-01-15T12:51:25;3.90;86.30
36654;DHT22;22650;49.350;20.898;2024-01-15T12:53:59;3.80;85.00
36654;DHT22;22650;49.350;20.898;2024-01-15T12:56:32;3.60;84.60
36654;DHT22;22650;49.350;20.898;2024-01-15T12:59:07;3.50;85.30
36654;DHT22;22650;49.350;20.898;2024-01-15T13:01:41;3.40;86.50
36654;DHT22;22650;49.350;20.898;2024-01-15T13:04:21;3.30;86.90
36654;DHT22;22650;49.350;20.898;2024-01-15T13:06:57;3.20;87.90
36654;DHT22;22650;49.350;20.898;2024-01-15T13:09:31;3.10;88.50
36654;DHT22;22650;49.350;20.898;2024-01-15T13:12:06;3.10;88.70
36654;DHT22;22650;49.350;20.898;2024-01-15T13:14:41;3.00;88.90
36654;DHT22;22650;49.350;20.898;2024-01-15T13:17:14;3.00;89.70
36654;DHT22;22650;49.350;20.898;2024-01-15T13:19:49;2.90;89.10
36654;DHT22;22650;49.350;20.898;2024-01-15T13:22:23;2.80;89.10
36654;DHT22;22650;49.350;20.898;2024-01-15T13:25:02;2.80;89.80
36654;DHT22;22650;49.350;20.898;2024-01-15T13:27:36;2.70;90.00
36654;DHT22;22650;49.350;20.898;2024-01-15T13:30:13;2.60;89.30
36654;DHT22;22650;49.350;20.898;2024-01-15T13:32:47;2.60;90.20
36654;DHT22;22650;49.350;20.898;2024-01-15T13:35:20;2.50;89.80
36654;DHT22;22650;49.350;20.898;2024-01-15T13:37:54;2.40;90.20
36654;DHT22;22650;49.350;20.898;2024-01-15T13:40:28;2.40;90.50
36654;DHT22;22650;49.350;20.898;2024-01-15T13:43:01;2.40;90.40
36654;DHT22;22650;49.350;20.898;2024-01-15T13:45:41;2.30;90.30
36654;DHT22;22650;49.350;20.898;2024-01-15T13:48:15;2.40;90.00
36654;DHT22;22650;49.350;20.898;2024-01-15T13:50:50;2.30;90.10
36654;DHT22;22650;49.350;20.898;2024-01-15T13:53:24;2.30;90.00
36654;DHT22;22650;49.350;20.898;2024-01-15T13:55:57;2.30;89.40
36654;DHT22;22650;49.350;20.898;2024-01-15T13:58:31;2.40;90.50
36654;DHT22;22650;49.350;20.898;2024-01-15T14:01:06;2.50;89.20
36654;DHT22;22650;49.350;20.898;2024-01-15T14:03:40;2.60;89.10
36654;DHT22;22650;49.350;20.898;2024-01-15T14:06:14;2.50;88.70
36654;DHT22;22650;49.350;20.898;2024-01-15T14:08:49;2.50;89.10
36654;DHT22;22650;49.350;20.898;2024-01-15T14:11:28;2.50;89.90
36654;DHT22;22650;49.350;20.898;2024-01-15T14:14:02;2.40;88.40
36654;DHT22;22650;49.350;20.898;2024-01-15T14:16:36;2.40;88.30
36654;DHT22;22650;49.350;20.898;2024-01-15T14:19:10;2.30;87.90
36654;DHT22;22650;49.350;20.898;2024-01-15T14:21:44;2.20;88.70
36654;DHT22;22650;49.350;20.898;2024-01-15T14:24:18;2.00;87.70
36654;DHT22;22650;49.350;20.898;2024-01-15T14:26:52;1.90;87.70
36654;DHT22;22650;49.350;20.898;2024-01-15T14:29:25;1.90;88.20
36654;DHT22;22650;49.350;20.898;2024-01-15T14:32:04;1.80;88.00
36654;DHT22;22650;49.350;20.898;2024-01-15T14:34:39;1.70;87.70
36654;DHT22;22650;49.350;20.898;2024-01-15T14:37:14;1.70;87.70
36654;DHT22;22650;49.350;20.898;2024-01-15T14:39:48;1.60;87.40
36654;DHT22;22650;49.350;20.898;2024-01-15T14:42:22;1.50;87.80
36654;DHT22;22650;49.350;20.898;2024-01-15T14:44:56;1.50;88.70
36654;DHT22;22650;49.350;20.898;2024-01-15T14:47:32;1.50;88.60
36654;DHT22;22650;49.350;20.898;2024-01-15T14:50:08;1.40;87.80
36654;DHT22;22650;49.350;20.898;2024-01-15T14:52:43;1.40;88.90
36654;DHT22;22650;49.350;20.898;2024-01-15T14:55:18;1.30;88.90
36654;DHT22;22650;49.350;20.898;2024-01-15T14:57:52;1.30;89.50
36654;DHT22;22650;49.350;20.898;2024-01-15T15:00:26;1.20;90.00
36654;DHT22;22650;49.350;20.898;2024-01-15T15:03:01;1.20;90.00
36654;DHT22;22650;49.350;20.898;2024-01-15T15:05:35;1.20;90.00
36654;DHT22;22650;49.350;20.898;2024-01-15T15:08:09;1.10;90.00
36654;DHT22;22650;49.350;20.898;2024-01-15T15:10:44;1.20;90.00
36654;DHT22;22650;49.350;20.898;2024-01-15T15:13:18;1.10;90.00
36654;DHT22;22650;49.350;20.898;2024-01-15T15:16:08;1.10;90.30
36654;DHT22;22650;49.350;20.898;2024-01-15T15:18:43;1.10;90.30
36654;DHT22;22650;49.350;20.898;2024-01-15T15:21:19;1.00;90.20
36654;DHT22;22650;49.350;20.898;2024-01-15T15:23:53;1.00;90.40
36654;DHT22;22650;49.350;20.898;2024-01-15T15:26:27;0.90;90.30
36654;DHT22;22650;49.350;20.898;2024-01-15T15:29:00;0.90;88.90
36654;DHT22;22650;49.350;20.898;2024-01-15T15:31:34;0.90;90.00
36654;DHT22;22650;49.350;20.898;2024-01-15T15:34:09;0.90;89.90
36654;DHT22;22650;49.350;20.898;2024-01-15T15:36:43;0.80;90.00
36654;DHT22;22650;49.350;20.898;2024-01-15T15:39:17;0.90;90.30
36654;DHT22;22650;49.350;20.898;2024-01-15T15:41:50;0.80;90.10
36654;DHT22;22650;49.350;20.898;2024-01-15T15:44:24;0.80;90.10
36654;DHT22;22650;49.350;20.898;2024-01-15T15:46:58;0.80;89.70
36654;DHT22;22650;49.350;20.898;2024-01-15T15:49:33;0.80;89.70
36654;DHT22;22650;49.350;20.898;2024-01-15T15:52:07;0.80;89.70
36654;DHT22;22650;49.350;20.898;2024-01-15T15:54:40;0.80;89.50
36654;DHT22;22650;49.350;20.898;2024-01-15T15:57:14;0.80;90.10
36654;DHT22;22650;49.350;20.898;2024-01-15T15:59:48;0.80;89.80
36654;DHT22;22650;49.350;20.898;2024-01-15T16:02:21;0.80;90.00
36654;DHT22;22650;49.350;20.898;2024-01-15T16:04:56;0.80;90.00
36654;DHT22;22650;49.350;20.898;2024-01-15T16:07:30;0.80;89.70